Time;durP1;ratioP1;P1;durP2;ratioP2;P2;SDS_P1;SDS_P2;PMS_P1;PMS_P2;Temp;Humidity;BMP_temperature;BMP_pressure;BME280_temperature;BME280_humidity;BME280_pressure;Samples;Min_cycle;Max_cycle;Signal;HPM_P1;HPM_P2
2023/03/11 00:00:50;;;;;;;16.73;6.00;;;;;;;-4.41;78.56;95903.88;6323077;28;20044;-67
2023/03/11 00:03:51;;;;;;;13.40;8.07;;;;;;;-4.38;78.32;95897.84;6322663;28;20055;-66
2023/03/11 00:06:52;;;;;;;18.65;9.35;;;;;;;-4.41;78.59;95903.03;6320690;28;20048;-66
2023/03/11 00:09:58;;;;;;;15.95;8.68;;;;;;;-4.46;78.76;95889.47;6322404;28;20075;-68
2023/03/11 00:13:00;;;;;;;11.00;4.43;;;;;;;-4.14;78.92;95906.72;6322633;28;20063;-66
2023/03/11 00:16:03;;;;;;;9.27;5.55;;;;;;;-4.02;78.86;95901.28;6322547;28;20055;-67
2023/03/11 00:19:09;;;;;;;13.38;6.10;;;;;;;-4.11;78.94;95901.50;6322684;28;20545;-68
2023/03/11 00:22:10;;;;;;;18.33;8.57;;;;;;;-4.10;79.34;95904.03;6322774;28;20036;-66
2023/03/11 00:25:13;;;;;;;10.18;5.43;;;;;;;-4.03;78.71;95906.47;6321558;28;21007;-67
2023/03/11 00:28:15;;;;;;;13.25;6.53;;;;;;;-4.32;79.08;95906.25;6322176;28;20055;-67
2023/03/11 00:31:21;;;;;;;14.98;7.93;;;;;;;-4.18;79.27;95899.97;6322425;28;20036;-66
2023/03/11 00:34:24;;;;;;;;;;;;;;;-4.06;79.21;95889.41;6322518;28;20055;-66
2023/03/11 00:37:28;;;;;;;12.93;6.47;;;;;;;-4.20;79.90;95884.56;6322082;28;19924;-67
2023/03/11 00:40:33;;;;;;;11.05;6.03;;;;;;;-3.98;79.70;95891.78;6321691;28;20055;-67
2023/03/11 00:43:37;;;;;;;18.23;8.55;;;;;;;-3.98;79.97;95884.09;6321963;28;20413;-66
2023/03/11 00:46:41;;;;;;;16.40;8.00;;;;;;;-4.09;80.60;95874.91;6321934;28;20039;-67
2023/03/11 00:49:42;;;;;;;13.00;6.82;;;;;;;-4.00;80.30;95867.84;6321420;28;20074;-66
2023/03/11 00:52:45;;;;;;;15.35;6.30;;;;;;;-3.93;80.00;95870.25;6321463;28;20040;-67
2023/03/11 00:55:49;;;;;;;17.08;7.82;;;;;;;-3.85;80.58;95862.31;6321751;28;20580;-67
2023/03/11 00:58:50;;;;;;;10.73;4.78;;;;;;;-3.87;80.39;95851.25;6320972;28;20513;-67
2023/03/11 01:01:54;;;;;;;18.65;8.88;;;;;;;-4.04;80.36;95850.84;6321803;28;20043;-67
2023/03/11 01:05:00;;;;;;;13.57;8.63;;;;;;;-3.77;80.56;95869.84;6321741;28;20086;-67
2023/03/11 01:08:06;;;;;;;15.90;7.75;;;;;;;-3.57;80.28;95874.50;6321347;28;20040;-66
2023/03/11 01:11:11;;;;;;;14.63;6.75;;;;;;;-3.52;80.18;95870.09;6320904;28;20048;-66
2023/03/11 01:14:17;;;;;;;16.08;8.63;;;;;;;-3.62;80.26;95870.34;6321424;28;20545;-66
2023/03/11 01:17:21;;;;;;;8.77;4.22;;;;;;;-3.49;80.02;95873.41;6320673;28;20055;-67
2023/03/11 01:20:25;;;;;;;14.93;6.90;;;;;;;-3.49;79.99;95877.72;6320756;28;20048;-67
2023/03/11 01:23:31;;;;;;;12.15;5.50;;;;;;;-3.42;80.16;95871.56;6321203;28;20044;-67
2023/03/11 01:26:32;;;;;;;13.95;7.95;;;;;;;-3.47;80.80;95874.22;6321113;28;20497;-68
2023/03/11 01:29:34;;;;;;;15.50;9.05;;;;;;;-3.39;80.83;95876.63;6320507;28;20051;-66
2023/03/11 01:32:37;;;;;;;8.32;4.45;;;;;;;-3.26;80.40;95862.53;6320519;28;20085;-66
2023/03/11 01:35:41;;;;;;;16.85;7.90;;;;;;;-3.25;80.76;95851.38;6319902;28;20048;-67
2023/03/11 01:38:42;;;;;;;16.15;7.22;;;;;;;-3.32;81.09;95847.25;6319304;28;20145;-67
2023/03/11 01:41:47;;;;;;;8.10;4.88;;;;;;;-3.02;81.13;95875.63;6320539;28;20040;-66
2023/03/11 01:44:51;;;;;;;16.73;7.95;;;;;;;-2.80;80.68;95865.53;6320499;28;20044;-67
2023/03/11 01:47:55;;;;;;;16.27;8.02;;;;;;;-2.73;80.76;95867.06;6319819;28;20051;-67
2023/03/11 01:50:59;;;;;;;14.00;6.45;;;;;;;-2.74;80.68;95860.25;6320055;28;20050;-67
2023/03/11 01:54:05;;;;;;;13.02;6.78;;;;;;;-2.73;80.62;95847.31;6320114;28;20054;-68
2023/03/11 01:57:12;;;;;;;14.23;7.63;;;;;;;-2.65;80.84;95848.84;6320170;28;20055;-67
2023/03/11 02:00:16;;;;;;;16.15;8.63;;;;;;;-2.56;80.89;95851.13;6319107;28;20040;-67
2023/03/11 02:03:30;;;;;;;20.30;8.82;;;;;;;-2.52;80.71;95855.28;6320251;28;20055;-67
2023/03/11 02:06:31;;;;;;;;;;;;;;;-2.35;80.50;95862.50;6320406;28;20142;-67
2023/03/11 02:09:35;;;;;;;18.75;8.88;;;;;;;-2.32;80.82;95862.41;6319748;28;20300;-67
2023/03/11 02:12:44;;;;;;;12.95;7.18;;;;;;;-2.17;81.10;95879.16;6319826;28;20044;-67
2023/03/11 02:15:48;;;;;;;15.57;7.90;;;;;;;-2.07;80.19;95881.41;6319215;28;20044;-68
2023/03/11 02:18:52;;;;;;;13.77;7.72;;;;;;;-2.08;80.22;95876.28;6319230;28;20054;-67
2023/03/11 02:21:55;;;;;;;14.63;7.85;;;;;;;-2.14;80.89;95881.63;6319733;28;20526;-68
2023/03/11 02:25:08;;;;;;;14.95;6.85;;;;;;;-1.88;80.23;95879.06;6319047;28;20052;-68
2023/03/11 02:28:14;;;;;;;11.43;6.00;;;;;;;-1.99;80.33;95860.53;6319867;28;20040;-67
2023/03/11 02:31:19;;;;;;;15.05;7.03;;;;;;;-1.82;80.27;95868.56;6318835;28;20043;-67
2023/03/11 02:34:24;;;;;;;16.35;8.02;;;;;;;-1.76;80.36;95866.69;6318894;28;20043;-67
2023/03/11 02:37:30;;;;;;;17.50;9.00;;;;;;;-1.76;79.95;95864.09;6318142;28;20056;-68
2023/03/11 02:40:51;;;;;;;12.23;6.57;;;;;;;-1.52;79.25;95845.25;6319395;28;20481;-66
2023/03/11 02:43:57;;;;;;;14.07;7.40;;;;;;;-1.45;79.06;95856.19;6318497;28;20551;-67
2023/03/11 02:47:00;;;;;;;10.60;4.53;;;;;;;-1.38;79.53;95861.09;6318824;28;20048;-68
2023/03/11 02:50:05;;;;;;;14.00;5.85;;;;;;;-1.32;79.61;95867.78;6318885;28;20554;-67
2023/03/11 02:53:11;;;;;;;11.73;6.07;;;;;;;-1.32;79.68;95851.47;6318909;28;20099;-67
2023/03/11 02:56:15;;;;;;;12.88;7.35;;;;;;;-1.18;80.00;95859.56;6319357;28;20039;-67
2023/03/11 02:59:21;;;;;;;17.83;8.82;;;;;;;-1.16;79.81;95852.59;6319287;28;20093;-67
2023/03/11 03:02:25;;;;;;;11.00;5.45;;;;;;;-1.09;79.99;95854.06;6319130;28;20051;-67
2023/03/11 03:05:27;;;;;;;16.67;8.85;;;;;;;-1.06;79.73;95833.31;6318753;28;20051;-67
2023/03/11 03:08:28;;;;;;;10.85;6.28;;;;;;;-1.01;79.71;95846.91;6319198;28;20044;-68
2023/03/11 03:11:29;;;;;;;16.70;8.18;;;;;;;-1.04;79.63;95862.50;6316676;28;20052;-67
2023/03/11 03:14:33;;;;;;;14.80;7.47;;;;;;;-1.06;79.77;95874.63;6319073;28;20040;-67
2023/03/11 03:17:36;;;;;;;19.67;9.27;;;;;;;-0.92;80.28;95881.88;6318959;28;20493;-68
2023/03/11 03:20:40;;;;;;;13.75;6.93;;;;;;;-0.68;79.86;95874.97;6318960;28;20055;-67
2023/03/11 03:23:42;;;;;;;13.35;7.68;;;;;;;-0.71;79.65;95870.78;6318736;28;20044;-67
2023/03/11 03:26:44;;;;;;;16.83;8.70;;;;;;;-0.65;80.08;95880.06;6317920;28;20142;-68
2023/03/11 03:29:45;;;;;;;14.63;7.82;;;;;;;-0.59;79.36;95873.81;6317421;28;20048;-68
2023/03/11 03:32:53;;;;;;;16.90;8.48;;;;;;;-0.50;79.98;95882.06;6318990;28;20051;-67
2023/03/11 03:35:55;;;;;;;16.77;8.23;;;;;;;-0.20;79.68;95876.63;6316835;28;20052;-67
2023/03/11 03:39:00;;;;;;;17.67;9.18;;;;;;;0.11;79.75;95891.78;6317647;28;20501;-67
2023/03/11 03:42:03;;;;;;;14.48;8.05;;;;;;;0.60;79.82;95889.00;6318379;28;20055;-67
2023/03/11 03:45:07;;;;;;;13.23;6.93;;;;;;;1.01;79.53;95896.75;6318195;28;20059;-67
2023/03/11 03:48:11;;;;;;;11.93;6.75;;;;;;;1.65;79.61;95901.72;6318697;28;20044;-67
2023/03/11 03:51:15;;;;;;;11.48;7.40;;;;;;;2.27;79.55;95902.31;6318287;28;20044;-67
2023/03/11 03:54:19;;;;;;;9.10;5.57;;;;;;;2.68;79.02;95910.69;6318035;28;20514;-67
2023/03/11 03:57:27;;;;;;;10.50;6.47;;;;;;;3.07;78.75;95917.41;6318590;28;20136;-67
2023/03/11 04:00:28;;;;;;;10.68;7.25;;;;;;;3.30;78.66;95910.22;6320204;28;20079;-67
2023/03/11 04:03:30;;;;;;;15.00;8.00;;;;;;;3.84;78.64;95926.44;6322636;28;20051;-67
2023/03/11 04:06:36;;;;;;;13.15;6.50;;;;;;;4.42;77.28;95919.84;6322908;28;20043;-67
2023/03/11 04:09:42;;;;;;;10.45;6.68;;;;;;;4.78;76.11;95906.47;6322520;28;20054;-67
2023/03/11 04:12:47;;;;;;;10.30;6.80;;;;;;;5.14;74.29;95908.72;6321926;28;20429;-67
2023/03/11 04:15:49;;;;;;;10.13;6.38;;;;;;;5.28;72.71;95909.69;6322717;28;20039;-67
2023/03/11 04:18:50;;;;;;;6.55;3.92;;;;;;;5.45;71.69;95911.28;6321005;28;20138;-67
2023/03/11 04:21:57;;;;;;;4.97;4.05;;;;;;;5.49;70.66;95923.22;6321441;28;20481;-67
2023/03/11 04:24:59;;;;;;;7.38;4.47;;;;;;;5.54;70.31;95908.97;6322286;28;20040;-66
2023/03/11 04:28:03;;;;;;;8.02;5.07;;;;;;;5.56;69.83;95908.88;6320965;28;20059;-67
2023/03/11 04:31:04;;;;;;;6.40;5.07;;;;;;;5.55;69.91;95918.50;6322269;28;20036;-68
2023/03/11 04:34:06;;;;;;;6.43;5.03;;;;;;;5.50;69.78;95930.13;6321995;28;20048;-68
2023/03/11 04:37:07;;;;;;;6.90;5.05;;;;;;;5.66;68.92;95930.88;6320699;28;20044;-68
2023/03/11 04:40:10;;;;;;;7.53;5.03;;;;;;;5.64;68.43;95953.63;6321964;28;20533;-68
2023/03/11 04:43:11;;;;;;;7.28;4.82;;;;;;;5.54;68.66;95944.66;6321318;28;20406;-68
2023/03/11 04:46:12;;;;;;;6.43;2.72;;;;;;;5.75;67.90;95940.78;6321360;28;20051;-68
2023/03/11 04:49:13;;;;;;;5.85;3.90;;;;;;;5.82;67.95;95952.50;6321463;28;20524;-67
2023/03/11 04:52:15;;;;;;;4.68;3.58;;;;;;;5.98;68.20;95962.06;6321564;28;20040;-67
2023/03/11 04:55:18;;;;;;;4.43;3.60;;;;;;;6.17;66.37;95952.16;6321826;28;20052;-67
2023/03/11 04:58:24;;;;;;;6.70;3.30;;;;;;;6.14;65.90;95964.56;6321124;28;20128;-67
2023/03/11 05:01:25;;;;;;;;;;;;;;;6.21;65.67;95964.09;6322095;28;20086;-67
2023/03/11 05:04:26;;;;;;;4.63;3.03;;;;;;;6.37;65.00;95943.09;6321058;28;20006;-67
2023/03/11 05:07:27;;;;;;;4.13;2.92;;;;;;;6.55;64.92;95941.06;6321009;28;20044;-67
2023/03/11 05:10:35;;;;;;;4.22;2.42;;;;;;;6.83;63.44;95960.22;6321032;28;20036;-67
2023/03/11 05:13:37;;;;;;;3.30;2.92;;;;;;;7.27;61.75;95949.44;6320772;28;20071;-67
2023/03/11 05:16:38;;;;;;;1.98;1.60;;;;;;;7.61;60.06;95966.38;6319453;28;20410;-68
2023/03/11 05:19:41;;;;;;;2.25;2.00;;;;;;;7.81;59.02;95953.69;6321324;28;20139;-68
2023/03/11 05:22:45;;;;;;;;;;;;;;;8.12;58.57;95967.28;6321354;28;20044;-67
2023/03/11 05:25:51;;;;;;;1.70;1.60;;;;;;;7.85;57.75;95966.47;6320788;28;20313;-67
2023/03/11 05:28:53;;;;;;;;;;;;;;;7.74;58.43;95979.44;6321248;28;20036;-68
2023/03/11 05:31:56;;;;;;;2.33;1.50;;;;;;;7.23;59.00;95962.84;6320690;28;19919;-68
2023/03/11 05:35:00;;;;;;;2.50;2.05;;;;;;;6.73;60.46;95960.78;6320632;28;20044;-67
2023/03/11 05:38:03;;;;;;;2.45;1.70;;;;;;;6.34;61.93;95958.09;6320554;28;20509;-68
2023/03/11 05:41:07;;;;;;;1.52;1.42;;;;;;;6.12;61.86;95956.84;6302431;28;20429;-67
2023/03/11 05:44:12;;;;;;;2.03;1.55;;;;;;;6.15;61.71;95977.53;6320379;28;20050;-68
2023/03/11 05:47:18;;;;;;;1.30;1.20;;;;;;;5.94;62.75;95984.06;6320081;28;20074;-67
2023/03/11 05:50:22;;;;;;;1.20;1.10;;;;;;;9.23;57.44;95997.84;6319236;28;20051;-68
2023/03/11 05:53:27;;;;;;;;;;;;;;;14.09;47.64;95993.56;6319130;28;20134;-67
2023/03/11 05:56:31;;;;;;;1.00;0.82;;;;;;;17.65;39.91;95987.19;6319881;28;20029;-68
2023/03/11 05:59:36;;;;;;;2.75;1.45;;;;;;;20.44;34.66;96000.19;6320254;28;20040;-68
2023/03/11 06:02:42;;;;;;;3.88;2.58;;;;;;;21.85;29.25;95991.09;6318420;28;20427;-68
2023/03/11 06:05:48;;;;;;;2.10;1.45;;;;;;;23.22;27.47;95994.19;6318714;28;20146;-67
2023/03/11 06:08:53;;;;;;;3.88;2.35;;;;;;;24.13;25.96;95990.31;6320102;28;20046;-68
2023/03/11 06:11:58;;;;;;;3.05;1.98;;;;;;;25.09;23.97;95996.00;6319893;28;20051;-68
2023/03/11 06:15:01;;;;;;;2.92;2.42;;;;;;;25.05;23.01;95994.78;6318453;28;20134;-68
2023/03/11 06:18:08;;;;;;;2.92;1.77;;;;;;;26.02;22.41;95993.97;6319823;28;20493;-68
2023/03/11 06:21:21;;;;;;;1.50;1.10;;;;;;;26.86;21.16;96001.56;6319831;28;20497;-68
2023/03/11 06:24:26;;;;;;;1.13;0.93;;;;;;;27.54;20.19;95992.50;6318947;28;20050;-69
2023/03/11 06:27:30;;;;;;;1.58;1.33;;;;;;;27.96;19.54;96010.69;6319385;28;20054;-69
2023/03/11 06:30:35;;;;;;;1.70;1.25;;;;;;;27.91;19.52;96000.56;6319397;28;20040;-68
2023/03/11 06:33:40;;;;;;;2.75;2.03;;;;;;;27.69;19.08;95994.81;6317843;28;20051;-68
2023/03/11 06:36:45;;;;;;;4.70;3.75;;;;;;;26.53;20.93;96001.06;6319155;28;20042;-68
2023/03/11 06:39:53;;;;;;;2.92;1.48;;;;;;;26.05;21.00;96002.44;6319006;28;20050;-68
2023/03/11 06:42:58;;;;;;;1.70;1.33;;;;;;;27.15;19.73;95993.78;6319075;28;20047;-67
2023/03/11 06:46:12;;;;;;;0.80;0.68;;;;;;;28.77;18.67;95995.66;6319372;28;20044;-69
2023/03/11 06:49:17;;;;;;;0.85;0.75;;;;;;;29.09;17.56;96006.97;6319191;28;20040;-68
2023/03/11 06:52:21;;;;;;;1.05;0.70;;;;;;;29.09;17.63;95998.84;6300981;28;20056;-68
2023/03/11 06:55:26;;;;;;;0.38;0.28;;;;;;;29.63;17.16;96003.25;6318849;28;20056;-67
2023/03/11 06:58:31;;;;;;;0.40;0.30;;;;;;;29.58;17.40;95995.78;6317733;28;20541;-68
2023/03/11 07:01:37;;;;;;;2.72;1.98;;;;;;;30.66;16.58;96014.88;6318974;28;20511;-68
2023/03/11 07:04:42;;;;;;;1.00;0.90;;;;;;;29.00;17.52;96005.66;6318820;28;20044;-67
2023/03/11 07:07:47;;;;;;;1.00;0.50;;;;;;;26.65;19.37;96000.09;6319156;28;20127;-68
2023/03/11 07:11:05;;;;;;;0.50;0.30;;;;;;;24.02;22.54;95994.44;6318968;28;20044;-67
2023/03/11 07:14:10;;;;;;;0.68;0.50;;;;;;;23.78;22.34;95987.78;6317419;28;20429;-68
2023/03/11 07:17:15;;;;;;;0.50;0.40;;;;;;;25.29;20.73;95989.75;6318832;28;20046;-70
2023/03/11 07:20:20;;;;;;;1.02;0.30;;;;;;;27.53;18.67;96006.25;6318639;28;20129;-68
2023/03/11 07:23:25;;;;;;;1.48;0.38;;;;;;;28.86;17.73;96012.38;6318940;28;20041;-70
2023/03/11 07:26:32;;;;;;;0.82;0.60;;;;;;;30.42;16.66;96027.78;6318812;28;20040;-68
2023/03/11 07:29:34;;;;;;;0.20;0.20;;;;;;;30.05;16.58;96027.38;6318478;28;20189;-68
2023/03/11 07:32:40;;;;;;;0.80;0.20;;;;;;;29.52;17.33;96023.84;6318582;28;20421;-68
2023/03/11 07:35:44;;;;;;;0.30;0.20;;;;;;;29.58;16.80;96022.06;6321500;28;20039;-68
2023/03/11 07:38:48;;;;;;;0.63;0.47;;;;;;;30.31;16.54;96020.53;6323544;28;20110;-68
2023/03/11 07:41:52;;;;;;;0.52;0.40;;;;;;;29.17;16.91;96011.22;6323575;28;20060;-69
2023/03/11 07:44:58;;;;;;;0.88;0.30;;;;;;;30.39;15.99;96030.97;6323407;28;20410;-69
2023/03/11 07:48:03;;;;;;;0.30;0.30;;;;;;;29.26;17.44;96014.38;6323198;28;20046;-68
2023/03/11 07:51:08;;;;;;;0.22;0.22;;;;;;;29.78;16.65;96027.97;6323148;28;20036;-70
2023/03/11 07:54:13;;;;;;;0.35;0.30;;;;;;;31.99;14.85;96024.88;6321766;28;20051;-68
2023/03/11 07:57:16;;;;;;;1.45;0.85;;;;;;;33.34;14.05;96023.00;6322803;28;20048;-68
2023/03/11 08:00:18;;;;;;;2.90;1.40;;;;;;;34.19;13.73;96040.81;6322553;28;20055;-68
2023/03/11 08:03:19;;;;;;;1.45;1.30;;;;;;;34.39;13.34;96031.84;6322920;28;20044;-68
2023/03/11 08:06:27;;;;;;;0.68;0.47;;;;;;;34.95;12.45;96030.25;6323232;28;20501;-68
2023/03/11 08:09:29;;;;;;;0.70;0.60;;;;;;;33.84;13.05;96038.78;6322034;28;20062;-69
2023/03/11 08:12:39;;;;;;;0.70;0.70;;;;;;;31.47;14.37;96030.75;6322813;28;20040;-69
2023/03/11 08:15:43;;;;;;;1.25;0.75;;;;;;;31.17;14.26;96025.69;6322139;28;20044;-68
2023/03/11 08:18:49;;;;;;;1.42;0.40;;;;;;;31.46;14.76;96015.53;6322092;28;20055;-69
2023/03/11 08:21:50;;;;;;;0.30;0.25;;;;;;;31.04;14.77;96021.44;6321668;28;20043;-68
2023/03/11 08:24:52;;;;;;;0.80;0.30;;;;;;;31.48;14.16;96029.66;6322226;28;20188;-69
2023/03/11 08:27:53;;;;;;;0.40;0.40;;;;;;;31.21;13.89;96013.25;6321242;28;20676;-68
2023/03/11 08:30:55;;;;;;;0.60;0.60;;;;;;;30.10;14.84;96030.19;6321086;28;20048;-68
2023/03/11 08:34:00;;;;;;;0.88;0.60;;;;;;;29.79;15.25;96026.88;6321945;28;20449;-67
2023/03/11 08:37:01;;;;;;;0.40;0.30;;;;;;;29.98;15.02;96030.22;6321963;28;20052;-68
2023/03/11 08:40:06;;;;;;;0.28;0.28;;;;;;;30.85;14.64;96032.56;6322355;28;20044;-68
2023/03/11 08:43:14;;;;;;;0.70;0.65;;;;;;;31.12;14.30;96034.59;6321922;28;20050;-69
2023/03/11 08:46:22;;;;;;;1.38;0.52;;;;;;;32.47;13.57;96035.97;6321307;28;20486;-69
2023/03/11 08:49:26;;;;;;;0.70;0.50;;;;;;;32.47;13.56;96044.97;6321806;28;20529;-69
2023/03/11 08:52:34;;;;;;;0.88;0.57;;;;;;;31.50;13.91;96052.00;6321564;28;20489;-68
2023/03/11 08:55:38;;;;;;;1.00;0.77;;;;;;;31.28;13.73;96057.38;6321760;28;20040;-69
2023/03/11 08:58:42;;;;;;;0.85;0.57;;;;;;;31.06;13.82;96062.78;6321547;28;20417;-68
2023/03/11 09:01:43;;;;;;;0.47;0.30;;;;;;;31.30;13.38;96071.53;6321399;28;20048;-69
2023/03/11 09:04:47;;;;;;;1.00;0.50;;;;;;;32.19;13.01;96074.06;6321386;28;20502;-68
2023/03/11 09:07:53;;;;;;;0.20;0.20;;;;;;;32.77;12.65;96084.44;6321413;28;20044;-68
2023/03/11 09:11:00;;;;;;;1.77;0.40;;;;;;;33.15;12.18;96086.16;6321158;28;20047;-67
2023/03/11 09:14:04;;;;;;;0.30;0.30;;;;;;;33.59;12.04;96085.88;6321120;28;20085;-69
2023/03/11 09:17:06;;;;;;;0.50;0.30;;;;;;;32.43;12.39;96084.66;6320493;28;20052;-69
2023/03/11 09:20:07;;;;;;;0.88;0.77;;;;;;;31.73;13.57;96089.84;6320618;28;20450;-68
2023/03/11 09:23:15;;;;;;;0.57;0.50;;;;;;;31.64;13.53;96087.78;6320578;28;20394;-69
2023/03/11 09:26:17;;;;;;;0.65;0.40;;;;;;;30.63;14.03;96078.66;6320384;28;20090;-69
2023/03/11 09:29:20;;;;;;;0.22;0.10;;;;;;;30.54;14.16;96080.09;6320785;28;20048;-69
2023/03/11 09:32:24;;;;;;;0.63;0.30;;;;;;;30.53;13.72;96077.63;6320606;28;20421;-69
2023/03/11 09:35:28;;;;;;;0.90;0.68;;;;;;;30.24;14.22;96069.53;6320416;28;20505;-68
2023/03/11 09:38:34;;;;;;;0.98;0.40;;;;;;;30.98;13.92;96065.91;6320832;28;20044;-69
2023/03/11 09:42:01;;;;;;;2.30;0.65;;;;;;;31.84;12.85;96076.34;6319414;28;20048;-68
2023/03/11 09:45:13;;;;;;;0.57;0.50;;;;;;;32.67;12.45;96079.75;6320416;28;20497;-69
2023/03/11 09:48:31;;;;;;;1.45;0.85;;;;;;;33.54;12.28;96088.56;6318971;28;20054;-68
2023/03/11 09:51:50;;;;;;;0.60;0.60;;;;;;;33.08;11.54;96091.81;6318810;28;20052;-68
2023/03/11 09:54:58;;;;;;;0.73;0.40;;;;;;;31.18;12.75;96098.81;6320029;28;20048;-69
2023/03/11 09:58:17;;;;;;;1.63;0.50;;;;;;;29.85;13.70;96104.56;6319564;28;20043;-69
2023/03/11 10:01:26;;;;;;;0.10;0.10;;;;;;;29.08;13.80;96094.72;6320086;28;20032;-68
2023/03/11 10:04:43;;;;;;;0.80;0.30;;;;;;;28.28;14.25;96100.53;6320246;28;20040;-68
2023/03/11 10:08:01;;;;;;;0.30;0.30;;;;;;;28.40;14.22;96109.50;6320257;28;20042;-69
2023/03/11 10:11:26;;;;;;;0.35;0.30;;;;;;;29.95;13.45;96115.63;6319011;28;20046;-67
2023/03/11 10:14:39;;;;;;;1.33;0.50;;;;;;;30.50;12.55;96121.56;6318964;28;20040;-68
2023/03/11 10:17:54;;;;;;;0.98;0.60;;;;;;;30.28;12.82;96129.56;6320065;28;20044;-67
2023/03/11 10:21:19;;;;;;;1.45;0.40;;;;;;;30.01;12.79;96129.25;6318677;28;20042;-69
2023/03/11 10:24:53;;;;;;;0.60;0.40;;;;;;;28.85;13.40;96132.59;6319677;28;20051;-69
2023/03/11 10:28:07;;;;;;;0.40;0.40;;;;;;;28.02;13.87;96128.72;6319540;28;20040;-69
2023/03/11 10:31:27;;;;;;;0.60;0.30;;;;;;;27.54;14.55;96140.28;6319610;28;20050;-68
2023/03/11 10:34:39;;;;;;;0.95;0.50;;;;;;;28.08;14.15;96144.06;6318464;28;20043;-69
2023/03/11 10:37:54;;;;;;;1.33;0.50;;;;;;;27.69;14.17;96150.75;6319491;28;20040;-69
2023/03/11 10:41:02;;;;;;;1.00;0.50;;;;;;;27.15;14.18;96147.72;6319404;28;20050;-69
2023/03/11 10:44:12;;;;;;;1.42;0.90;;;;;;;26.83;14.33;96161.25;6319229;28;20047;-68
2023/03/11 10:47:22;;;;;;;1.50;1.20;;;;;;;26.01;14.76;96170.19;6319578;28;20051;-69
2023/03/11 10:50:26;;;;;;;2.05;1.30;;;;;;;24.50;16.08;96174.44;6319193;28;20066;-69
2023/03/11 10:53:30;;;;;;;3.08;2.08;;;;;;;23.97;16.77;96179.59;6318735;28;20063;-69
2023/03/11 10:56:36;;;;;;;4.20;1.88;;;;;;;24.77;16.49;96185.22;6318867;28;20035;-67
2023/03/11 10:59:50;;;;;;;4.40;2.30;;;;;;;26.09;15.77;96196.94;6318596;28;20520;-68
2023/03/11 11:02:57;;;;;;;2.90;1.95;;;;;;;26.20;15.13;96207.03;6319033;28;20040;-68
2023/03/11 11:06:17;;;;;;;2.08;1.58;;;;;;;26.46;15.21;96214.19;6317971;28;20127;-69
2023/03/11 11:09:23;;;;;;;2.75;1.50;;;;;;;26.83;14.98;96211.72;6321001;28;20047;-69
2023/03/11 11:12:28;;;;;;;2.13;0.90;;;;;;;27.11;14.59;96214.00;6324029;28;20265;-69
2023/03/11 11:15:39;;;;;;;3.47;1.40;;;;;;;26.70;14.71;96218.03;6324051;28;20412;-69
2023/03/11 11:19:02;;;;;;;1.27;0.93;;;;;;;26.55;15.04;96228.28;6324006;28;20036;-68
2023/03/11 11:22:13;;;;;;;2.08;1.00;;;;;;;26.15;14.61;96231.13;6324004;28;20043;-68
2023/03/11 11:25:32;;;;;;;1.20;0.70;;;;;;;25.89;15.17;96226.66;6323768;28;20046;-68
2023/03/11 11:28:36;;;;;;;2.63;0.90;;;;;;;25.05;15.65;96234.34;6323465;28;20036;-68
2023/03/11 11:31:43;;;;;;;1.30;0.95;;;;;;;24.55;15.94;96231.16;6323549;28;20046;-69
2023/03/11 11:35:07;;;;;;;0.90;0.70;;;;;;;24.06;15.66;96240.25;6322420;28;20036;-68
2023/03/11 11:38:11;;;;;;;0.87;0.77;;;;;;;23.19;16.47;96240.66;6322278;28;20145;-68
2023/03/11 11:41:19;;;;;;;2.15;0.82;;;;;;;22.77;16.64;96248.50;6323520;28;20438;-68
2023/03/11 11:44:33;;;;;;;1.63;0.77;;;;;;;21.67;17.70;96240.53;6323323;28;20502;-68
2023/03/11 11:47:44;;;;;;;0.90;0.90;;;;;;;20.10;18.27;96248.06;6323290;28;20528;-68
2023/03/11 11:50:59;;;;;;;1.77;0.90;;;;;;;19.41;19.12;96255.72;6323154;28;20131;-68
2023/03/11 11:54:30;;;;;;;1.15;0.90;;;;;;;18.74;19.70;96260.41;6322907;28;20055;-68
2023/03/11 11:57:35;;;;;;;0.90;0.80;;;;;;;17.28;20.91;96272.94;6322944;28;20048;-68
2023/03/11 12:00:57;;;;;;;1.65;1.02;;;;;;;16.27;22.40;96277.66;6321703;28;20050;-68
2023/03/11 12:04:16;;;;;;;1.63;1.02;;;;;;;15.59;22.96;96277.94;6321512;28;20444;-69
2023/03/11 12:07:39;;;;;;;1.10;1.00;;;;;;;14.84;23.37;96293.72;6323009;28;20519;-67
2023/03/11 12:10:48;;;;;;;1.00;0.68;;;;;;;14.42;24.01;96298.41;6322835;28;20523;-69
2023/03/11 12:14:12;;;;;;;0.70;0.70;;;;;;;14.28;24.22;96307.56;6322722;28;20417;-68
2023/03/11 12:17:19;;;;;;;1.67;0.98;;;;;;;14.44;24.18;96307.88;6312943;28;20048;-68
2023/03/11 12:20:29;;;;;;;1.02;0.80;;;;;;;14.45;24.26;96314.84;6321545;28;20051;-67
2023/03/11 12:23:33;;;;;;;1.33;1.17;;;;;;;14.65;24.22;96310.44;6322510;28;20048;-69
2023/03/11 12:26:42;;;;;;;1.40;1.02;;;;;;;15.10;23.51;96325.78;6322039;28;20052;-68
2023/03/11 12:29:51;;;;;;;1.10;1.00;;;;;;;14.91;23.63;96331.91;6322211;28;20497;-68
2023/03/11 12:33:04;;;;;;;1.30;1.10;;;;;;;14.43;24.20;96342.44;6322264;28;20048;-68
2023/03/11 12:36:38;;;;;;;1.30;0.90;;;;;;;13.82;24.96;96349.47;6321930;28;20056;-68
2023/03/11 12:39:42;;;;;;;0.82;0.80;;;;;;;13.15;25.72;96341.94;6321960;28;20062;-69
2023/03/11 12:42:44;;;;;;;1.83;1.02;;;;;;;12.19;26.45;96335.69;6322171;28;20040;-69
2023/03/11 12:45:54;;;;;;;1.15;0.98;;;;;;;11.15;28.00;96344.63;6321296;28;20048;-69
2023/03/11 12:49:11;;;;;;;1.23;0.82;;;;;;;10.69;28.61;96363.81;6321123;28;20138;-68
2023/03/11 12:52:18;;;;;;;1.95;1.40;;;;;;;10.29;29.11;96366.72;6321988;28;20040;-68
2023/03/11 12:55:31;;;;;;;1.88;1.00;;;;;;;10.26;29.20;96380.03;6321597;28;20516;-68
2023/03/11 12:58:59;;;;;;;2.60;1.73;;;;;;;9.94;29.70;96387.59;6321267;28;20055;-68
2023/03/11 13:02:23;;;;;;;2.05;1.30;;;;;;;9.33;30.66;96392.63;6321607;28;20152;-68
2023/03/11 13:05:45;;;;;;;1.20;0.98;;;;;;;8.97;30.87;96383.66;6321015;28;20052;-68
2023/03/11 13:08:54;;;;;;;2.78;1.38;;;;;;;8.60;31.46;96400.13;6321347;28;20055;-68
2023/03/11 13:11:58;;;;;;;1.67;1.30;;;;;;;8.19;32.54;96408.81;6321290;28;20123;-68
2023/03/11 13:15:23;;;;;;;1.30;1.20;;;;;;;7.59;33.07;96425.59;6321069;28;20507;-69
2023/03/11 13:18:27;;;;;;;2.67;1.23;;;;;;;6.92;34.67;96431.22;6308746;28;20071;-69
2023/03/11 13:21:28;;;;;;;1.23;1.00;;;;;;;6.14;35.60;96427.72;6320965;28;20043;-68
2023/03/11 13:24:32;;;;;;;1.80;1.17;;;;;;;5.65;36.87;96451.19;6321054;28;20126;-68
2023/03/11 13:27:43;;;;;;;1.40;1.30;;;;;;;5.18;37.99;96451.88;6320411;28;20047;-68
2023/03/11 13:31:25;;;;;;;2.80;1.30;;;;;;;4.82;37.82;96459.75;6320525;28;20039;-67
2023/03/11 13:34:53;;;;;;;1.35;1.25;;;;;;;4.54;38.88;96470.66;6297351;28;20402;-68
2023/03/11 13:38:32;;;;;;;1.27;1.10;;;;;;;4.11;39.59;96477.84;6318747;28;20129;-68
2023/03/11 13:41:40;;;;;;;1.77;1.30;;;;;;;3.76;40.10;96475.03;6320312;28;20044;-68
2023/03/11 13:44:42;;;;;;;2.40;1.50;;;;;;;3.48;40.22;96484.06;6318873;28;20517;-68
2023/03/11 13:47:48;;;;;;;2.55;1.92;;;;;;;3.29;40.70;96494.41;6320440;28;20044;-68
2023/03/11 13:51:03;;;;;;;1.75;1.52;;;;;;;3.19;41.47;96500.03;6320657;28;20132;-68
2023/03/11 13:54:18;;;;;;;1.90;1.33;;;;;;;3.17;41.21;96509.66;6318662;28;20394;-68
2023/03/11 13:57:30;;;;;;;1.95;1.73;;;;;;;2.83;41.92;96516.22;6320398;28;20421;-68
2023/03/11 14:00:35;;;;;;;2.13;1.48;;;;;;;2.70;42.15;96519.31;6320298;28;20040;-68
2023/03/11 14:03:43;;;;;;;3.50;1.70;;;;;;;2.55;42.96;96538.09;6302058;28;20048;-67
2023/03/11 14:06:49;;;;;;;2.05;1.40;;;;;;;2.47;43.92;96541.00;6319972;28;20039;-68
2023/03/11 14:10:05;;;;;;;1.95;1.50;;;;;;;2.22;43.96;96551.44;6320020;28;20169;-68
2023/03/11 14:13:18;;;;;;;1.52;1.42;;;;;;;2.09;44.55;96570.94;6319840;28;20042;-67
2023/03/11 14:16:34;;;;;;;3.13;1.80;;;;;;;1.93;45.06;96565.47;6319466;28;20402;-67
2023/03/11 14:19:39;;;;;;;2.67;1.75;;;;;;;1.61;45.47;96574.38;6319171;28;20051;-68
2023/03/11 14:23:15;;;;;;;1.75;1.50;;;;;;;1.78;45.18;96595.41;6317798;28;20050;-67
2023/03/11 14:26:28;;;;;;;2.40;1.80;;;;;;;1.55;46.04;96595.31;6319899;28;20040;-67
2023/03/11 14:29:35;;;;;;;1.70;1.60;;;;;;;1.27;46.36;96606.59;6319038;28;20051;-68
2023/03/11 14:32:37;;;;;;;3.17;1.83;;;;;;;1.14;46.82;96613.09;6318932;28;20052;-68
2023/03/11 14:35:51;;;;;;;2.55;1.63;;;;;;;1.14;46.77;96620.88;6317516;28;20051;-68
2023/03/11 14:38:58;;;;;;;1.42;1.33;;;;;;;0.98;47.08;96619.63;6319740;28;20047;-68
2023/03/11 14:42:12;;;;;;;2.05;1.58;;;;;;;0.83;47.44;96632.16;6319133;28;20067;-68